Time;durP1;ratioP1;P1;durP2;ratioP2;P2;SDS_P1;SDS_P2;PMS_P1;PMS_P2;Temp;Humidity;BMP_temperature;BMP_pressure;BME280_temperature;BME280_humidity;BME280_pressure;Samples;Min_cycle;Max_cycle;Signal;HPM_P1;HPM_P2
2022/11/28 00:01:52;;;;;;;48.72;28.38;;;;;;;;;;5009070;28;20025;-80
2022/11/28 00:04:18;;;;;;;47.70;28.63;;;;;;;;;;5007540;28;20034;-80
2022/11/28 00:06:45;;;;;;;52.55;32.50;;;;;;;;;;5001610;28;20124;-81
2022/11/28 00:09:12;;;;;;;50.58;32.97;;;;;;;;;;5012408;28;20089;-80
2022/11/28 00:11:39;;;;;;;47.22;30.80;;;;;;;;;;5011678;28;20030;-80
2022/11/28 00:14:05;;;;;;;54.03;35.17;;;;;;;;;;5013229;28;20026;-80
2022/11/28 00:16:31;;;;;;;54.10;31.35;;;;;;;;;;5010478;28;20081;-80
2022/11/28 00:18:58;;;;;;;47.70;30.77;;;;;;;;;;5019436;28;20034;-80
2022/11/28 00:21:24;;;;;;;60.58;42.33;;;;;;;;;;5006899;28;20049;-80
2022/11/28 00:23:50;;;;;;;63.38;41.83;;;;;;;;;;5003917;28;20045;-80
2022/11/28 00:26:22;;;;;;;45.28;31.48;;;;;;;;;;5001951;28;20044;-80
2022/11/28 00:28:48;;;;;;;41.03;26.42;;;;;;;;;;5016700;28;20026;-80
2022/11/28 00:31:18;;;;;;;34.80;23.25;;;;;;;;;;5012353;28;20037;-80
2022/11/28 00:33:44;;;;;;;35.80;22.73;;;;;;;;;;5009069;28;20140;-81
2022/11/28 00:36:10;;;;;;;34.80;22.13;;;;;;;;;;5002990;28;20113;-81
2022/11/28 00:38:36;;;;;;;37.42;24.98;;;;;;;;;;5008434;28;20065;-80
2022/11/28 00:41:12;;;;;;;39.10;25.02;;;;;;;;;;5000013;28;20069;-79
2022/11/28 00:43:38;;;;;;;39.38;24.67;;;;;;;;;;5015391;28;20053;-79
2022/11/28 00:46:04;;;;;;;32.97;22.00;;;;;;;;;;5007354;28;20449;-79
2022/11/28 00:48:31;;;;;;;38.40;24.58;;;;;;;;;;5005318;28;20037;-79
2022/11/28 00:51:04;;;;;;;40.50;25.58;;;;;;;;;;5005691;28;20847;-79
2022/11/28 00:53:30;;;;;;;41.17;25.38;;;;;;;;;;5015521;28;20022;-79
2022/11/28 00:55:56;;;;;;;40.75;25.35;;;;;;;;;;5012154;28;20041;-80
2022/11/28 00:58:22;;;;;;;49.83;32.55;;;;;;;;;;5015003;28;20046;-79
2022/11/28 01:00:48;;;;;;;33.50;22.13;;;;;;;;;;5032299;28;20112;-79
2022/11/28 01:03:14;;;;;;;32.15;19.17;;;;;;;;;;5031728;28;20033;-79
2022/11/28 01:05:42;;;;;;;33.22;20.83;;;;;;;;;;5046638;28;20029;-80
2022/11/28 01:08:08;;;;;;;23.60;15.65;;;;;;;;;;5005636;28;20041;-80
2022/11/28 01:10:34;;;;;;;21.90;12.80;;;;;;;;;;5012932;28;20448;-79
2022/11/28 01:13:00;;;;;;;22.33;12.48;;;;;;;;;;5021247;28;20040;-80
2022/11/28 01:15:26;;;;;;;25.95;15.30;;;;;;;;;;5011930;28;20540;-79
2022/11/28 01:17:52;;;;;;;32.38;19.27;;;;;;;;;;5022415;28;20034;-80
2022/11/28 01:20:18;;;;;;;36.65;19.65;;;;;;;;;;5030423;28;20038;-80
2022/11/28 01:22:44;;;;;;;37.22;21.65;;;;;;;;;;5014424;28;20029;-79
2022/11/28 01:25:10;;;;;;;40.40;22.92;;;;;;;;;;5040717;28;20716;-79
2022/11/28 01:27:36;;;;;;;45.50;28.20;;;;;;;;;;5022738;28;20071;-80
2022/11/28 01:30:02;;;;;;;58.22;34.83;;;;;;;;;;5038582;28;20488;-80
2022/11/28 01:32:28;;;;;;;48.88;29.83;;;;;;;;;;5033490;28;20039;-79
2022/11/28 01:34:54;;;;;;;45.80;29.30;;;;;;;;;;5040536;28;20029;-80
2022/11/28 01:37:20;;;;;;;44.72;25.80;;;;;;;;;;5031703;28;20544;-79
2022/11/28 01:39:46;;;;;;;38.70;23.08;;;;;;;;;;5027475;28;20382;-79
2022/11/28 01:42:16;;;;;;;30.73;20.60;;;;;;;;;;5030949;28;20029;-79
2022/11/28 01:44:42;;;;;;;31.98;19.70;;;;;;;;;;5034582;28;20056;-79
2022/11/28 01:47:08;;;;;;;30.13;17.80;;;;;;;;;;5027056;28;20082;-80
2022/11/28 01:49:36;;;;;;;31.92;19.13;;;;;;;;;;5027476;28;20084;-81
2022/11/28 01:52:05;;;;;;;32.83;19.42;;;;;;;;;;5029282;28;20069;-80
2022/11/28 01:54:32;;;;;;;33.15;19.23;;;;;;;;;;5025239;28;20084;-80
2022/11/28 01:57:00;;;;;;;28.75;18.63;;;;;;;;;;5024917;28;20029;-80
2022/11/28 01:59:27;;;;;;;24.85;13.57;;;;;;;;;;5009669;28;20057;-80
2022/11/28 02:01:54;;;;;;;15.48;8.52;;;;;;;;;;5032033;28;20041;-80
2022/11/28 02:04:21;;;;;;;18.27;9.30;;;;;;;;;;5030979;28;20095;-80
2022/11/28 02:06:47;;;;;;;17.08;9.85;;;;;;;;;;5010195;28;20040;-80
2022/11/28 02:09:14;;;;;;;17.17;10.50;;;;;;;;;;5009276;28;20046;-80
2022/11/28 02:11:58;;;;;;;16.58;10.43;;;;;;;;;;5038321;28;20030;-80
2022/11/28 02:14:30;;;;;;;11.80;4.80;;;;;;;;;;5030162;28;20113;-82
2022/11/28 02:17:14;;;;;;;11.13;5.80;;;;;;;;;;5034223;28;20034;-80
2022/11/28 02:19:52;;;;;;;14.15;7.38;;;;;;;;;;5018923;28;20498;-80
2022/11/28 02:22:30;;;;;;;13.20;6.95;;;;;;;;;;5034791;28;20034;-80
2022/11/28 02:25:02;;;;;;;13.45;7.75;;;;;;;;;;5030228;28;20395;-80
2022/11/28 02:27:28;;;;;;;;;;;;;;;;;;5040881;28;20124;-80
2022/11/28 02:30:06;;;;;;;11.52;6.43;;;;;;;;;;5011916;28;20345;-80
2022/11/28 02:32:38;;;;;;;17.55;8.63;;;;;;;;;;4996708;28;20042;-80
2022/11/28 02:35:19;;;;;;;17.15;8.52;;;;;;;;;;5004105;28;20036;-80
2022/11/28 02:37:54;;;;;;;14.13;6.88;;;;;;;;;;5022286;28;20073;-81
2022/11/28 02:40:23;;;;;;;18.10;10.32;;;;;;;;;;5010132;28;20040;-81
2022/11/28 02:43:02;;;;;;;15.88;9.20;;;;;;;;;;5042942;28;20037;-80
2022/11/28 02:45:31;;;;;;;15.95;8.05;;;;;;;;;;4998039;28;20553;-80
2022/11/28 02:48:01;;;;;;;15.68;8.93;;;;;;;;;;5034735;28;20051;-80
2022/11/28 02:50:54;;;;;;;17.23;7.55;;;;;;;;;;5022672;28;20033;-80
2022/11/28 02:53:22;;;;;;;13.45;8.07;;;;;;;;;;5005598;28;20049;-80
2022/11/28 02:55:50;;;;;;;13.80;8.07;;;;;;;;;;5029773;28;20087;-80
2022/11/28 02:58:17;;;;;;;14.77;8.25;;;;;;;;;;5037055;28;20048;-80
2022/11/28 03:00:45;;;;;;;16.10;8.52;;;;;;;;;;5031668;28;20033;-81
2022/11/28 03:03:14;;;;;;;15.32;7.65;;;;;;;;;;5025657;28;20050;-80
2022/11/28 03:05:51;;;;;;;12.43;7.30;;;;;;;;;;5012566;28;20031;-80
2022/11/28 03:08:20;;;;;;;15.93;7.63;;;;;;;;;;5024671;28;20043;-80
2022/11/28 03:11:07;;;;;;;21.02;8.60;;;;;;;;;;5028987;28;20884;-80
2022/11/28 03:13:51;;;;;;;13.35;7.15;;;;;;;;;;4952783;28;20045;-81
2022/11/28 03:16:17;;;;;;;13.18;7.00;;;;;;;;;;5010818;28;20030;-80
2022/11/28 03:18:58;;;;;;;13.55;6.57;;;;;;;;;;5014094;28;20112;-80
2022/11/28 03:21:44;;;;;;;16.77;8.02;;;;;;;;;;5032450;28;20033;-80
2022/11/28 03:24:14;;;;;;;13.48;6.80;;;;;;;;;;5025431;28;20033;-80
2022/11/28 03:26:47;;;;;;;11.35;6.45;;;;;;;;;;5030215;28;20022;-80
2022/11/28 03:29:13;;;;;;;;;;;;;;;;;;5032043;28;20045;-81
2022/11/28 03:31:41;;;;;;;14.52;6.90;;;;;;;;;;5012705;28;20334;-80
2022/11/28 03:34:10;;;;;;;14.73;6.63;;;;;;;;;;5034714;28;20060;-80
2022/11/28 03:36:42;;;;;;;13.45;7.68;;;;;;;;;;5031885;28;20197;-80
2022/11/28 03:39:10;;;;;;;13.30;6.28;;;;;;;;;;5047450;28;20755;-80
2022/11/28 03:41:37;;;;;;;13.57;6.70;;;;;;;;;;5019820;28;20037;-81
2022/11/28 03:44:06;;;;;;;13.43;6.03;;;;;;;;;;5026598;28;20044;-80
2022/11/28 03:46:34;;;;;;;11.80;6.93;;;;;;;;;;5034229;28;20037;-80
2022/11/28 03:49:02;;;;;;;11.43;5.93;;;;;;;;;;5039727;28;20080;-80
2022/11/28 03:51:39;;;;;;;13.07;6.47;;;;;;;;;;5020635;28;20129;-80
2022/11/28 03:54:11;;;;;;;13.10;6.65;;;;;;;;;;5016877;28;20034;-80
2022/11/28 03:56:55;;;;;;;11.35;6.22;;;;;;;;;;5032543;28;20029;-80
2022/11/28 03:59:24;;;;;;;15.43;6.90;;;;;;;;;;5030673;28;20068;-80
2022/11/28 04:01:50;;;;;;;14.55;6.72;;;;;;;;;;5010858;28;20049;-80
2022/11/28 04:04:27;;;;;;;14.55;7.10;;;;;;;;;;5014935;28;20041;-80
2022/11/28 04:06:55;;;;;;;14.95;6.88;;;;;;;;;;5041495;28;20041;-80
2022/11/28 04:09:43;;;;;;;13.98;6.75;;;;;;;;;;5032259;28;20037;-81
2022/11/28 04:12:15;;;;;;;12.30;6.22;;;;;;;;;;5028897;28;20124;-80
2022/11/28 04:14:45;;;;;;;13.55;6.13;;;;;;;;;;5000468;28;20029;-80
2022/11/28 04:17:19;;;;;;;10.70;5.93;;;;;;;;;;5031139;28;20156;-80
2022/11/28 04:19:50;;;;;;;10.38;5.65;;;;;;;;;;5026318;28;20041;-80
2022/11/28 04:22:20;;;;;;;13.63;6.35;;;;;;;;;;5034853;28;20033;-79
2022/11/28 04:24:49;;;;;;;12.68;6.07;;;;;;;;;;5025089;28;20035;-80
2022/11/28 04:27:18;;;;;;;10.82;5.82;;;;;;;;;;5017419;28;20076;-80
2022/11/28 04:29:46;;;;;;;15.02;7.40;;;;;;;;;;5027429;28;20051;-80
2022/11/28 04:32:13;;;;;;;13.00;6.75;;;;;;;;;;5007927;28;20037;-80
2022/11/28 04:34:41;;;;;;;12.57;6.72;;;;;;;;;;5032397;28;20483;-80
2022/11/28 04:37:08;;;;;;;12.75;6.25;;;;;;;;;;5037253;28;20044;-80
2022/11/28 04:39:35;;;;;;;14.50;7.00;;;;;;;;;;5024328;28;20575;-80
2022/11/28 04:42:08;;;;;;;14.15;7.18;;;;;;;;;;5035324;28;20033;-80
2022/11/28 04:44:40;;;;;;;12.35;6.70;;;;;;;;;;5012910;28;20034;-80
2022/11/28 04:47:06;;;;;;;17.85;7.60;;;;;;;;;;5025942;28;20033;-81
2022/11/28 04:49:33;;;;;;;12.82;6.35;;;;;;;;;;5028059;28;20391;-80
2022/11/28 04:52:22;;;;;;;12.32;6.70;;;;;;;;;;5008629;28;20036;-80
2022/11/28 04:55:07;;;;;;;11.15;6.38;;;;;;;;;;5030328;28;20029;-80
2022/11/28 04:57:36;;;;;;;13.30;7.63;;;;;;;;;;5028186;28;20076;-80
2022/11/28 05:00:04;;;;;;;12.55;6.72;;;;;;;;;;5022471;28;20083;-80
2022/11/28 05:02:31;;;;;;;14.90;8.18;;;;;;;;;;5013647;28;20145;-80
2022/11/28 05:04:58;;;;;;;14.43;7.50;;;;;;;;;;5010898;28;20029;-80
2022/11/28 05:07:24;;;;;;;14.05;7.32;;;;;;;;;;5019202;28;20815;-80
2022/11/28 05:09:50;;;;;;;16.85;7.85;;;;;;;;;;5002930;28;20132;-81
2022/11/28 05:12:16;;;;;;;18.20;8.20;;;;;;;;;;5014879;28;20104;-80
2022/11/28 05:14:42;;;;;;;18.23;8.18;;;;;;;;;;5010865;28;20054;-80
2022/11/28 05:17:10;;;;;;;22.83;9.45;;;;;;;;;;5003196;28;20778;-80
2022/11/28 05:19:36;;;;;;;17.27;9.25;;;;;;;;;;5024968;28;20040;-80
2022/11/28 05:22:02;;;;;;;15.93;7.93;;;;;;;;;;5026515;28;20041;-80
2022/11/28 05:24:28;;;;;;;16.80;7.95;;;;;;;;;;5003553;28;20032;-81
2022/11/28 05:26:54;;;;;;;17.33;7.90;;;;;;;;;;5021861;28;20033;-80
2022/11/28 05:29:20;;;;;;;13.07;5.53;;;;;;;;;;5020023;28;20083;-80
2022/11/28 05:31:46;;;;;;;15.80;7.38;;;;;;;;;;5030797;28;20121;-80
2022/11/28 05:34:12;;;;;;;16.70;7.85;;;;;;;;;;5038759;28;20034;-80
2022/11/28 05:36:38;;;;;;;15.48;7.63;;;;;;;;;;5031856;28;20025;-80
2022/11/28 05:39:04;;;;;;;15.43;6.30;;;;;;;;;;5024651;28;20068;-80
2022/11/28 05:41:31;;;;;;;15.73;7.28;;;;;;;;;;5031307;28;20037;-80
2022/11/28 05:43:57;;;;;;;19.80;9.75;;;;;;;;;;5034131;28;20029;-81
2022/11/28 05:46:23;;;;;;;17.95;10.00;;;;;;;;;;5009134;28;20045;-80
2022/11/28 05:48:49;;;;;;;25.27;13.88;;;;;;;;;;5026438;28;20246;-80
2022/11/28 05:51:15;;;;;;;27.88;14.90;;;;;;;;;;5015276;28;20033;-81
2022/11/28 05:53:41;;;;;;;30.83;15.93;;;;;;;;;;5016320;28;20034;-81
2022/11/28 05:56:08;;;;;;;10.32;4.85;;;;;;;;;;5030841;28;20426;-80
2022/11/28 05:58:35;;;;;;;11.98;5.63;;;;;;;;;;5031867;28;20080;-80
2022/11/28 06:01:08;;;;;;;13.70;6.18;;;;;;;;;;5030778;28;20033;-80
2022/11/28 06:03:34;;;;;;;13.52;7.07;;;;;;;;;;5033796;28;20025;-81
2022/11/28 06:06:00;;;;;;;14.90;7.50;;;;;;;;;;5024933;28;20430;-81
2022/11/28 06:08:26;;;;;;;17.45;9.20;;;;;;;;;;5002940;28;20040;-81
2022/11/28 06:10:57;;;;;;;18.02;8.45;;;;;;;;;;5008928;28;20800;-81
2022/11/28 06:13:23;;;;;;;20.23;10.05;;;;;;;;;;5029176;28;20030;-80
2022/11/28 06:15:49;;;;;;;17.50;8.93;;;;;;;;;;5031113;28;20025;-80
2022/11/28 06:18:15;;;;;;;22.95;13.60;;;;;;;;;;5003100;28;20064;-80
2022/11/28 06:20:41;;;;;;;26.60;16.67;;;;;;;;;;5031728;28;20555;-81
2022/11/28 06:23:07;;;;;;;26.92;14.45;;;;;;;;;;5034069;28;20033;-81
2022/11/28 06:25:33;;;;;;;25.50;14.52;;;;;;;;;;5009980;28;20045;-80
2022/11/28 06:27:59;;;;;;;35.53;19.55;;;;;;;;;;5027379;28;20097;-80
2022/11/28 06:30:25;;;;;;;22.50;12.10;;;;;;;;;;5029162;28;20031;-80
2022/11/28 06:32:51;;;;;;;21.15;9.60;;;;;;;;;;5035677;28;20029;-80
2022/11/28 06:35:17;;;;;;;20.02;9.88;;;;;;;;;;5027727;28;20667;-80
2022/11/28 06:37:43;;;;;;;18.90;9.80;;;;;;;;;;5029128;28;20018;-81
2022/11/28 06:40:09;;;;;;;20.30;10.43;;;;;;;;;;5021871;28;20101;-81
2022/11/28 06:42:35;;;;;;;18.25;9.40;;;;;;;;;;5035533;28;20022;-81
2022/11/28 06:45:02;;;;;;;17.52;9.68;;;;;;;;;;5013354;28;20026;-81
2022/11/28 06:47:28;;;;;;;25.92;9.75;;;;;;;;;;5014643;28;20049;-80
2022/11/28 06:49:54;;;;;;;18.75;9.98;;;;;;;;;;5030350;28;20079;-81
2022/11/28 06:52:20;;;;;;;24.80;10.60;;;;;;;;;;5009654;28;20093;-81
2022/11/28 06:54:46;;;;;;;21.17;9.60;;;;;;;;;;5032506;28;20033;-80
2022/11/28 06:57:12;;;;;;;30.27;14.65;;;;;;;;;;5035810;28;20037;-80
2022/11/28 06:59:38;;;;;;;29.73;15.52;;;;;;;;;;5010009;28;20058;-80
2022/11/28 07:02:05;;;;;;;27.00;12.93;;;;;;;;;;5033778;28;20084;-78
2022/11/28 07:04:31;;;;;;;26.83;13.10;;;;;;;;;;5022010;28;20955;-79
2022/11/28 07:06:57;;;;;;;26.80;12.82;;;;;;;;;;5028647;28;20100;-80
2022/11/28 07:09:23;;;;;;;24.10;11.02;;;;;;;;;;5031126;28;20038;-78
2022/11/28 07:11:49;;;;;;;28.33;13.00;;;;;;;;;;5029260;28;20049;-79
2022/11/28 07:14:15;;;;;;;21.83;10.85;;;;;;;;;;5024150;28;20068;-79
2022/11/28 07:16:41;;;;;;;20.80;9.45;;;;;;;;;;5025869;28;20036;-79
2022/11/28 07:19:07;;;;;;;21.65;8.85;;;;;;;;;;5027056;28;20084;-78
2022/11/28 07:21:33;;;;;;;25.85;9.77;;;;;;;;;;5030951;28;20431;-79
2022/11/28 07:23:59;;;;;;;112.15;44.83;;;;;;;;;;5032359;28;20113;-79
2022/11/28 07:26:25;;;;;;;83.47;33.75;;;;;;;;;;5031258;28;20033;-80
2022/11/28 07:28:51;;;;;;;61.42;26.83;;;;;;;;;;5025255;28;20055;-80
2022/11/28 07:31:20;;;;;;;58.00;25.25;;;;;;;;;;5024995;28;20537;-80
2022/11/28 07:33:47;;;;;;;42.40;19.50;;;;;;;;;;5027093;28;20104;-79
2022/11/28 07:36:15;;;;;;;39.15;19.60;;;;;;;;;;5024115;28;20132;-79
2022/11/28 07:38:41;;;;;;;47.22;22.27;;;;;;;;;;5025123;28;20109;-80
2022/11/28 07:41:11;;;;;;;49.42;21.98;;;;;;;;;;5029219;28;20045;-80
2022/11/28 07:43:37;;;;;;;31.58;14.00;;;;;;;;;;5024872;28;20104;-80
2022/11/28 07:46:05;;;;;;;28.83;13.20;;;;;;;;;;5027036;28;20037;-80
2022/11/28 07:48:31;;;;;;;23.95;10.85;;;;;;;;;;5015564;28;20030;-80
2022/11/28 07:50:57;;;;;;;24.25;12.65;;;;;;;;;;5025849;28;20096;-80
2022/11/28 07:53:23;;;;;;;29.38;14.13;;;;;;;;;;5025217;28;20809;-80
2022/11/28 07:55:49;;;;;;;25.95;13.27;;;;;;;;;;5029813;28;20093;-80
2022/11/28 07:58:15;;;;;;;31.65;10.95;;;;;;;;;;5030037;28;20029;-79
2022/11/28 08:00:41;;;;;;;25.20;11.38;;;;;;;;;;5019542;28;20067;-80
2022/11/28 08:03:07;;;;;;;21.65;10.38;;;;;;;;;;5026984;28;20100;-80
2022/11/28 08:05:33;;;;;;;22.83;10.50;;;;;;;;;;5027612;28;20052;-81
2022/11/28 08:07:59;;;;;;;20.23;10.80;;;;;;;;;;5017286;28;20034;-80
2022/11/28 08:10:25;;;;;;;19.10;10.05;;;;;;;;;;5027843;28;20743;-80
2022/11/28 08:12:51;;;;;;;16.80;9.02;;;;;;;;;;5028533;28;20041;-80
2022/11/28 08:15:17;;;;;;;19.15;9.27;;;;;;;;;;5028760;28;20078;-80
2022/11/28 08:17:43;;;;;;;23.83;9.63;;;;;;;;;;5027062;28;20033;-80
2022/11/28 08:20:09;;;;;;;22.35;9.40;;;;;;;;;;5024708;28;20037;-80
2022/11/28 08:22:35;;;;;;;19.75;9.30;;;;;;;;;;5030273;28;20472;-80
2022/11/28 08:25:01;;;;;;;20.35;8.43;;;;;;;;;;5028144;28;20053;-80
2022/11/28 08:27:27;;;;;;;18.92;9.77;;;;;;;;;;5023545;28;20112;-80
2022/11/28 08:29:53;;;;;;;22.77;10.15;;;;;;;;;;5018800;28;20087;-80
2022/11/28 08:32:19;;;;;;;31.27;10.68;;;;;;;;;;5024343;28;20033;-80
2022/11/28 08:34:45;;;;;;;23.55;11.35;;;;;;;;;;5037133;28;20028;-79
2022/11/28 08:37:11;;;;;;;24.33;11.35;;;;;;;;;;5030879;28;20037;-79
2022/11/28 08:39:37;;;;;;;23.38;11.32;;;;;;;;;;5030665;28;20143;-80
2022/11/28 08:42:03;;;;;;;28.13;12.00;;;;;;;;;;5029248;28;20040;-80
2022/11/28 08:44:29;;;;;;;28.05;12.88;;;;;;;;;;5032846;28;20033;-80
2022/11/28 08:46:55;;;;;;;26.30;12.20;;;;;;;;;;5030440;28;20701;-80
2022/11/28 08:49:21;;;;;;;27.27;11.40;;;;;;;;;;5038533;28;20039;-80
2022/11/28 08:51:47;;;;;;;26.70;11.85;;;;;;;;;;5033490;28;20044;-80
2022/11/28 08:54:13;;;;;;;24.77;11.65;;;;;;;;;;5042106;28;20079;-80
2022/11/28 08:56:39;;;;;;;28.25;10.95;;;;;;;;;;5030968;28;20033;-80
2022/11/28 08:59:06;;;;;;;35.80;12.70;;;;;;;;;;5038136;28;20402;-79
2022/11/28 09:01:32;;;;;;;29.58;11.25;;;;;;;;;;5028596;28;20038;-80
2022/11/28 09:03:58;;;;;;;34.25;13.13;;;;;;;;;;5026039;28;20033;-79
2022/11/28 09:06:24;;;;;;;38.20;13.35;;;;;;;;;;5030692;28;20044;-80
2022/11/28 09:08:51;;;;;;;29.45;12.80;;;;;;;;;;5024097;28;20026;-79
2022/11/28 09:11:18;;;;;;;28.55;12.57;;;;;;;;;;5028513;28;20680;-79
2022/11/28 09:13:44;;;;;;;40.50;14.57;;;;;;;;;;5031769;28;20029;-79
2022/11/28 09:16:10;;;;;;;30.30;12.95;;;;;;;;;;5031798;28;20034;-80
2022/11/28 09:18:36;;;;;;;30.88;13.02;;;;;;;;;;5027937;28;20452;-79
2022/11/28 09:21:04;;;;;;;34.45;14.55;;;;;;;;;;5022685;28;20099;-79
2022/11/28 09:23:30;;;;;;;31.85;12.63;;;;;;;;;;5040521;28;20061;-79
2022/11/28 09:25:56;;;;;;;33.67;12.75;;;;;;;;;;5032926;28;20118;-79
2022/11/28 09:28:23;;;;;;;35.38;13.45;;;;;;;;;;5030668;28;20038;-79
2022/11/28 09:30:49;;;;;;;26.85;12.82;;;;;;;;;;5025678;28;20048;-78
2022/11/28 09:33:15;;;;;;;39.20;12.30;;;;;;;;;;5038627;28;20030;-79
2022/11/28 09:35:41;;;;;;;32.60;13.73;;;;;;;;;;5028375;28;20030;-79
2022/11/28 09:38:07;;;;;;;35.45;15.63;;;;;;;;;;5024547;28;20025;-79
2022/11/28 09:40:42;;;;;;;40.47;16.00;;;;;;;;;;5020988;28;20041;-79
2022/11/28 09:43:34;;;;;;;33.67;16.05;;;;;;;;;;5027861;28;20021;-79
2022/11/28 09:46:01;;;;;;;39.00;19.20;;;;;;;;;;5019562;28;20121;-79
2022/11/28 09:48:38;;;;;;;34.25;18.38;;;;;;;;;;5029730;28;20120;-79
2022/11/28 09:51:09;;;;;;;40.63;19.70;;;;;;;;;;5021676;28;20041;-79
2022/11/28 09:53:45;;;;;;;31.35;16.25;;;;;;;;;;5029759;28;20029;-79
2022/11/28 09:56:16;;;;;;;33.88;15.43;;;;;;;;;;5020182;28;20061;-80
2022/11/28 09:58:47;;;;;;;27.67;13.57;;;;;;;;;;5028227;28;20041;-79
2022/11/28 10:01:33;;;;;;;31.08;13.90;;;;;;;;;;5030327;28;20068;-80
2022/11/28 10:03:59;;;;;;;27.45;11.90;;;;;;;;;;5034960;28;20056;-79
2022/11/28 10:07:00;;;;;;;26.67;10.68;;;;;;;;;;5031932;28;20048;-80
2022/11/28 10:09:36;;;;;;;21.45;10.38;;;;;;;;;;4966684;28;20038;-80
2022/11/28 10:12:25;;;;;;;21.30;9.63;;;;;;;;;;5015276;28;20875;-79
2022/11/28 10:14:53;;;;;;;17.92;9.10;;;;;;;;;;4991615;28;20121;-80
2022/11/28 10:17:28;;;;;;;22.48;9.60;;;;;;;;;;5028943;28;20028;-79
2022/11/28 10:20:15;;;;;;;25.05;10.15;;;;;;;;;;5025535;28;20038;-79
2022/11/28 10:22:46;;;;;;;25.85;10.50;;;;;;;;;;4999722;28;20034;-80
2022/11/28 10:25:28;;;;;;;22.55;10.25;;;;;;;;;;5029483;28;20033;-80
2022/11/28 10:27:55;;;;;;;24.42;9.73;;;;;;;;;;5027191;28;20029;-80
2022/11/28 10:30:23;;;;;;;19.80;8.85;;;;;;;;;;5028598;28;20041;-79
2022/11/28 10:33:10;;;;;;;18.10;8.30;;;;;;;;;;5030740;28;20028;-79
2022/11/28 10:35:42;;;;;;;28.20;8.95;;;;;;;;;;4985445;28;20049;-79
2022/11/28 10:38:15;;;;;;;19.42;8.25;;;;;;;;;;5030967;28;20029;-80
2022/11/28 10:40:45;;;;;;;19.65;8.13;;;;;;;;;;5029304;28;20047;-79
2022/11/28 10:43:11;;;;;;;21.38;7.72;;;;;;;;;;5028566;28;20040;-80
2022/11/28 10:45:55;;;;;;;27.70;9.65;;;;;;;;;;5029440;28;20041;-80
2022/11/28 10:48:27;;;;;;;30.02;10.15;;;;;;;;;;5028603;28;20022;-79
2022/11/28 10:51:05;;;;;;;21.80;8.80;;;;;;;;;;5029555;28;20037;-80
2022/11/28 10:53:31;;;;;;;24.50;10.55;;;;;;;;;;5028216;28;20033;-77
2022/11/28 10:56:03;;;;;;;25.85;10.60;;;;;;;;;;5032792;28;20111;-76
2022/11/28 10:58:29;;;;;;;28.13;9.90;;;;;;;;;;5025844;28;20029;-76
2022/11/28 11:00:56;;;;;;;19.02;8.68;;;;;;;;;;5031648;28;20056;-77
2022/11/28 11:03:28;;;;;;;16.08;7.88;;;;;;;;;;5028329;28;20356;-76
2022/11/28 11:05:54;;;;;;;21.52;8.25;;;;;;;;;;5027867;28;20076;-77
2022/11/28 11:08:24;;;;;;;27.88;8.50;;;;;;;;;;5026610;28;20029;-77
2022/11/28 11:10:50;;;;;;;24.83;7.70;;;;;;;;;;5023661;28;20084;-77
2022/11/28 11:13:22;;;;;;;18.08;8.13;;;;;;;;;;5017262;28;20049;-78
2022/11/28 11:15:50;;;;;;;19.42;9.07;;;;;;;;;;5033093;28;20030;-77
2022/11/28 11:18:26;;;;;;;24.60;13.15;;;;;;;;;;5025632;28;20035;-77
2022/11/28 11:21:06;;;;;;;21.15;9.32;;;;;;;;;;5025119;28;20108;-77
2022/11/28 11:23:32;;;;;;;20.98;8.73;;;;;;;;;;5028342;28;20099;-76
2022/11/28 11:25:59;;;;;;;21.52;7.90;;;;;;;;;;5031319;28;20041;-76
2022/11/28 11:28:25;;;;;;;19.40;7.68;;;;;;;;;;5022159;28;20532;-76
2022/11/28 11:30:57;;;;;;;14.07;7.35;;;;;;;;;;5025724;28;20033;-77
2022/11/28 11:33:26;;;;;;;16.48;6.15;;;;;;;;;;5021922;28;20022;-76
2022/11/28 11:35:52;;;;;;;22.58;7.03;;;;;;;;;;5028029;28;20036;-78
2022/11/28 11:38:26;;;;;;;16.15;6.25;;;;;;;;;;5019982;28;20372;-78
2022/11/28 11:40:52;;;;;;;13.77;5.20;;;;;;;;;;5026089;28;20040;-76
2022/11/28 11:43:31;;;;;;;21.05;10.95;;;;;;;;;;5028621;28;20041;-77
2022/11/28 11:46:08;;;;;;;17.40;7.40;;;;;;;;;;5026132;28;20048;-77
2022/11/28 11:48:52;;;;;;;13.10;6.60;;;;;;;;;;5028475;28;20072;-76
2022/11/28 11:51:23;;;;;;;16.55;6.70;;;;;;;;;;5029545;28;20374;-77
2022/11/28 11:53:59;;;;;;;18.23;7.47;;;;;;;;;;5027338;28;20038;-76
2022/11/28 11:56:27;;;;;;;19.10;6.65;;;;;;;;;;5021442;28;20167;-76
2022/11/28 11:58:53;;;;;;;27.30;7.70;;;;;;;;;;5026473;28;20042;-77
2022/11/28 12:01:21;;;;;;;20.05;7.32;;;;;;;;;;5025622;28;20161;-76
2022/11/28 12:03:54;;;;;;;13.55;6.15;;;;;;;;;;5025073;28;20034;-77
2022/11/28 12:06:23;;;;;;;12.70;5.10;;;;;;;;;;5028506;28;20628;-77
2022/11/28 12:08:50;;;;;;;14.55;4.35;;;;;;;;;;5031691;28;20709;-77
2022/11/28 12:11:29;;;;;;;14.43;3.53;;;;;;;;;;5032953;28;20068;-79
2022/11/28 12:13:57;;;;;;;8.65;3.25;;;;;;;;;;5029291;28;20033;-79
2022/11/28 12:16:41;;;;;;;19.23;3.60;;;;;;;;;;5026900;28;20033;-79
2022/11/28 12:19:13;;;;;;;11.95;3.40;;;;;;;;;;5026836;28;20032;-80
2022/11/28 12:21:39;;;;;;;8.55;2.92;;;;;;;;;;5027027;28;20038;-79
2022/11/28 12:24:08;;;;;;;11.70;2.92;;;;;;;;;;5023593;28;20033;-80
2022/11/28 12:26:39;;;;;;;61.47;41.45;;;;;;;;;;5034098;28;20803;-80
2022/11/28 12:29:24;;;;;;;32.97;19.98;;;;;;;;;;5030531;28;20029;-79
2022/11/28 12:31:56;;;;;;;19.35;9.32;;;;;;;;;;5030995;28;20116;-80
2022/11/28 12:34:44;;;;;;;12.40;5.35;;;;;;;;;;5025168;28;20034;-79
2022/11/28 12:37:21;;;;;;;10.07;3.15;;;;;;;;;;5022673;28;20042;-80
2022/11/28 12:39:54;;;;;;;13.50;3.47;;;;;;;;;;5026867;28;20056;-79
2022/11/28 12:42:27;;;;;;;10.52;4.60;;;;;;;;;;5030612;28;20033;-80
2022/11/28 12:45:05;;;;;;;15.15;8.52;;;;;;;;;;5021941;28;20637;-79
2022/11/28 12:47:31;;;;;;;14.82;6.45;;;;;;;;;;5029033;28;20037;-79
2022/11/28 12:50:12;;;;;;;11.35;5.63;;;;;;;;;;5031930;28;20036;-79
2022/11/28 12:53:00;;;;;;;16.00;6.07;;;;;;;;;;5030698;28;20030;-79
2022/11/28 12:55:59;;;;;;;11.80;5.35;;;;;;;;;;5029568;28;20034;-79
2022/11/28 12:58:45;;;;;;;18.20;6.55;;;;;;;;;;4991058;28;20559;-79
2022/11/28 13:01:30;;;;;;;15.10;7.90;;;;;;;;;;5034766;28;20128;-80
2022/11/28 13:04:02;;;;;;;15.13;7.32;;;;;;;;;;5027616;28;20040;-79
2022/11/28 13:06:35;;;;;;;14.20;7.28;;;;;;;;;;5030048;28;20034;-80
2022/11/28 13:09:20;;;;;;;15.38;8.40;;;;;;;;;;5026531;28;20037;-79
2022/11/28 13:12:05;;;;;;;21.88;10.02;;;;;;;;;;5028108;28;20526;-80
2022/11/28 13:14:34;;;;;;;17.42;7.80;;;;;;;;;;5023959;28;20043;-80
2022/11/28 13:17:12;;;;;;;18.02;8.82;;;;;;;;;;5033701;28;20029;-79
2022/11/28 13:19:56;;;;;;;20.35;10.90;;;;;;;;;;5017159;28;20169;-80
2022/11/28 13:22:35;;;;;;;19.30;10.68;;;;;;;;;;5031804;28;20041;-79
2022/11/28 13:25:17;;;;;;;18.90;10.93;;;;;;;;;;5026947;28;20038;-79
2022/11/28 13:28:06;;;;;;;19.35;10.25;;;;;;;;;;5029719;28;20102;-79
2022/11/28 13:30:38;;;;;;;16.95;9.55;;;;;;;;;;5028506;28;20037;-80
2022/11/28 13:33:11;;;;;;;21.02;10.60;;;;;;;;;;5028215;28;20036;-79
2022/11/28 13:35:38;;;;;;;16.10;9.98;;;;;;;;;;5032549;28;20033;-80
2022/11/28 13:38:13;;;;;;;18.08;7.90;;;;;;;;;;5027266;28;20030;-79
2022/11/28 13:40:42;;;;;;;18.58;8.00;;;;;;;;;;5033877;28;20041;-80
2022/11/28 13:43:18;;;;;;;21.45;10.20;;;;;;;;;;5035498;28;20026;-79
2022/11/28 13:45:45;;;;;;;23.20;10.98;;;;;;;;;;5021708;28;20038;-79
2022/11/28 13:48:31;;;;;;;21.15;11.30;;;;;;;;;;5026288;28;20104;-79
2022/11/28 13:51:16;;;;;;;27.17;10.20;;;;;;;;;;5013847;28;20427;-79
2022/11/28 13:53:43;;;;;;;21.67;9.75;;;;;;;;;;5033671;28;20036;-79
2022/11/28 13:56:09;;;;;;;24.08;9.10;;;;;;;;;;5025554;28;20054;-79
2022/11/28 13:58:41;;;;;;;20.48;8.82;;;;;;;;;;5029616;28;20088;-79
2022/11/28 14:01:08;;;;;;;18.23;8.30;;;;;;;;;;5030578;28;20041;-79
2022/11/28 14:03:35;;;;;;;20.33;9.02;;;;;;;;;;5031330;28;20025;-79
2022/11/28 14:06:04;;;;;;;17.25;7.90;;;;;;;;;;5028194;28;20038;-78
2022/11/28 14:08:35;;;;;;;18.77;8.30;;;;;;;;;;5029896;28;20482;-79
2022/11/28 14:11:07;;;;;;;14.68;7.22;;;;;;;;;;5029315;28;20045;-79
2022/11/28 14:13:33;;;;;;;12.83;6.17;;;;;;;;;;5034783;28;20021;-78
2022/11/28 14:16:06;;;;;;;17.45;8.45;;;;;;;;;;5033756;28;20413;-78
2022/11/28 14:18:32;;;;;;;19.67;9.77;;;;;;;;;;5019296;28;20022;-79
2022/11/28 14:21:00;;;;;;;20.92;9.80;;;;;;;;;;5030461;28;20040;-79
2022/11/28 14:23:26;;;;;;;14.05;7.38;;;;;;;;;;5039832;28;20029;-79
2022/11/28 14:25:53;;;;;;;17.25;8.23;;;;;;;;;;5029410;28;20047;-79
2022/11/28 14:28:24;;;;;;;15.57;8.02;;;;;;;;;;5032957;28;20037;-79
2022/11/28 14:30:51;;;;;;;21.48;9.73;;;;;;;;;;5024716;28;20063;-79
2022/11/28 14:33:23;;;;;;;17.92;10.15;;;;;;;;;;5024553;28;20032;-78
2022/11/28 14:35:49;;;;;;;15.93;7.68;;;;;;;;;;5029022;28;20071;-79
2022/11/28 14:38:32;;;;;;;16.90;6.30;;;;;;;;;;5035971;28;20052;-79
2022/11/28 14:41:00;;;;;;;10.63;5.20;;;;;;;;;;5023480;28;20072;-79
2022/11/28 14:43:30;;;;;;;10.45;4.40;;;;;;;;;;5028370;28;20037;-79